createdAt,value
2022-11-06T00:04:05.866Z,51.04
2022-11-06T00:14:07.250Z,51.00
2022-11-06T00:24:09.309Z,50.85
2022-11-06T00:34:11.002Z,50.97
2022-11-06T00:44:12.508Z,51.12
2022-11-06T00:54:14.066Z,51.13
2022-11-06T01:04:22.705Z,50.92
2022-11-06T01:14:24.581Z,51.08
2022-11-06T01:24:26.814Z,50.97
2022-11-06T01:34:28.223Z,51.03
2022-11-06T01:44:36.273Z,50.96
2022-11-06T01:54:39.717Z,51.05
2022-11-06T02:04:42.781Z,50.91
2022-11-06T02:14:53.719Z,51.12
2022-11-06T02:25:04.108Z,51.21
2022-11-06T02:35:21.435Z,51.04
2022-11-06T02:45:22.813Z,51.24
2022-11-06T02:55:42.174Z,51.14
2022-11-06T03:05:57.579Z,51.13
2022-11-06T03:16:05.220Z,51.24
2022-11-06T03:26:20.441Z,51.29
2022-11-06T03:36:31.586Z,51.11
2022-11-06T03:46:33.088Z,51.16
2022-11-06T03:56:36.837Z,51.35
2022-11-06T04:06:42.219Z,51.22
2022-11-06T04:16:46.550Z,51.19
2022-11-06T04:26:52.385Z,51.28
2022-11-06T04:36:59.991Z,50.99
2022-11-06T04:47:04.130Z,51.03
2022-11-06T04:57:05.553Z,51.25
2022-11-06T05:07:06.941Z,51.04
2022-11-06T05:17:08.313Z,51.11
2022-11-06T05:27:09.694Z,50.90
2022-11-06T05:37:11.075Z,51.05
2022-11-06T05:47:12.611Z,50.72
2022-11-06T05:57:14.146Z,51.02
2022-11-06T06:07:15.560Z,50.90
2022-11-06T06:17:16.948Z,50.75
2022-11-06T06:27:18.333Z,50.85
2022-11-06T06:37:20.366Z,50.75
2022-11-06T06:47:22.044Z,51.01
2022-11-06T06:57:23.412Z,50.92
2022-11-06T07:07:24.818Z,50.70
2022-11-06T07:17:26.966Z,50.05
2022-11-06T07:27:29.154Z,48.78
2022-11-06T07:37:30.556Z,47.48
2022-11-06T07:47:32.538Z,46.66
2022-11-06T07:57:35.920Z,46.47
2022-11-06T08:07:37.524Z,45.60
2022-11-06T08:17:39.057Z,45.66
2022-11-06T08:27:40.433Z,45.05
2022-11-06T08:37:41.795Z,44.57
2022-11-06T08:47:43.668Z,44.35
2022-11-06T08:57:45.729Z,44.41
2022-11-06T09:07:47.094Z,43.63
2022-11-06T09:17:49.456Z,43.76
2022-11-06T09:27:57.363Z,43.81
2022-11-06T09:38:04.541Z,43.99
2022-11-06T09:48:22.450Z,44.42
2022-11-06T09:58:26.502Z,44.32
2022-11-06T10:08:28.531Z,44.27
2022-11-06T10:18:34.724Z,44.09
2022-11-06T10:28:51.294Z,44.68
2022-11-06T10:38:52.696Z,45.06
2022-11-06T10:49:01.401Z,45.40
2022-11-06T10:59:02.765Z,45.31
2022-11-06T11:09:04.196Z,45.52
2022-11-06T11:19:33.309Z,45.60
2022-11-06T11:29:44.598Z,45.48
2022-11-06T11:39:46.004Z,46.04
2022-11-06T11:49:47.392Z,46.39
2022-11-06T11:59:51.614Z,47.17
2022-11-06T12:09:53.007Z,47.10
2022-11-06T12:19:55.035Z,47.00
2022-11-06T12:29:58.312Z,47.21
2022-11-06T12:40:25.124Z,47.09
2022-11-06T12:50:35.663Z,47.18
2022-11-06T13:00:52.585Z,46.83
2022-11-06T13:11:20.816Z,46.88
2022-11-06T13:21:50.617Z,46.07
2022-11-06T13:31:56.816Z,46.16
2022-11-06T13:41:58.400Z,46.94
2022-11-06T13:52:08.105Z,46.82
2022-11-06T14:02:23.710Z,46.69
2022-11-06T14:12:25.727Z,47.12
2022-11-06T14:22:36.227Z,46.58
2022-11-06T14:32:40.963Z,47.46
2022-11-06T14:42:44.855Z,47.38
2022-11-06T14:52:48.885Z,47.52
2022-11-06T15:02:50.325Z,47.74
2022-11-06T15:13:10.539Z,47.26
2022-11-06T15:23:19.909Z,47.13
2022-11-06T15:33:32.986Z,47.21
2022-11-06T15:43:35.584Z,46.83
2022-11-06T15:53:41.022Z,47.21
2022-11-06T16:03:50.870Z,47.31
2022-11-06T16:13:52.248Z,47.58
2022-11-06T16:24:01.956Z,47.30
2022-11-06T16:34:05.266Z,47.10
2022-11-06T16:44:30.989Z,47.38
2022-11-06T16:54:34.054Z,47.34
2022-11-06T17:04:35.613Z,47.58
2022-11-06T17:14:37.594Z,47.97
2022-11-06T17:24:38.987Z,48.14
2022-11-06T17:34:40.528Z,48.09
2022-11-06T17:44:41.935Z,48.12
2022-11-06T17:54:43.399Z,47.77
2022-11-06T18:04:44.847Z,47.97
2022-11-06T18:14:46.239Z,47.43
2022-11-06T18:24:47.818Z,48.36
2022-11-06T18:34:49.203Z,47.71
2022-11-06T18:44:50.573Z,48.37
2022-11-06T18:54:55.659Z,48.29
2022-11-06T19:04:59.748Z,47.99
2022-11-06T19:15:01.210Z,48.30
2022-11-06T19:25:04.075Z,48.29
2022-11-06T19:35:05.774Z,48.26
2022-11-06T19:45:08.679Z,48.40
2022-11-06T19:55:25.660Z,48.24
2022-11-06T20:05:28.603Z,48.49
2022-11-06T20:15:29.979Z,48.52
2022-11-06T20:25:31.361Z,48.49
2022-11-06T20:35:32.806Z,48.47
2022-11-06T20:45:37.141Z,48.33
2022-11-06T20:55:38.541Z,48.59
2022-11-06T21:05:39.985Z,48.50
2022-11-06T21:15:41.574Z,48.60
2022-11-06T21:25:45.423Z,48.45
2022-11-06T21:35:46.940Z,48.52
2022-11-06T21:45:48.326Z,48.47
2022-11-06T21:55:58.745Z,48.62
2022-11-06T22:06:07.120Z,48.53
2022-11-06T22:16:08.886Z,48.63
2022-11-06T22:26:16.039Z,48.45
2022-11-06T22:36:17.495Z,48.61
2022-11-06T22:46:20.627Z,48.67
2022-11-06T22:56:23.003Z,48.55
2022-11-06T23:06:25.214Z,48.61
2022-11-06T23:16:45.294Z,48.61
2022-11-06T23:26:47.243Z,48.53
2022-11-06T23:36:48.703Z,48.63
2022-11-06T23:46:50.101Z,48.69
2022-11-06T23:56:52.025Z,48.59
